createdAt,value
2017-08-01T00:00:37.060Z,82.39
2017-08-01T00:01:17.958Z,81.52
2017-08-01T00:01:58.850Z,81.13
2017-08-01T00:02:39.746Z,81.04
2017-08-01T00:03:20.646Z,81.23
2017-08-01T00:04:01.540Z,81.04
2017-08-01T00:04:42.440Z,80.55
2017-08-01T00:05:23.331Z,80.84
2017-08-01T00:06:04.232Z,80.36
2017-08-01T00:06:45.126Z,80.16
2017-08-01T00:07:26.019Z,80.74
2017-08-01T00:08:06.919Z,81.04
2017-08-01T00:08:47.813Z,80.94
2017-08-01T00:09:28.734Z,81.13
2017-08-01T00:10:09.626Z,81.62
2017-08-01T00:10:50.517Z,82.68
2017-08-01T00:11:31.413Z,82.39
2017-08-01T00:12:12.318Z,82.1
2017-08-01T00:12:53.220Z,81.81
2017-08-01T00:13:34.114Z,81.13
2017-08-01T00:14:15.006Z,81.62
2017-08-01T00:14:55.902Z,81.62
2017-08-01T00:15:36.799Z,81.42
2017-08-01T00:16:17.692Z,81.52
2017-08-01T00:16:58.595Z,81.81
2017-08-01T00:17:39.490Z,81.48
2017-08-01T00:18:20.386Z,81.42
2017-08-01T00:19:01.274Z,81.81
2017-08-01T00:19:42.167Z,81.9
2017-08-01T00:20:23.071Z,82.68
2017-08-01T00:21:03.975Z,82.78
2017-08-01T00:21:44.875Z,82.35
2017-08-01T00:22:25.769Z,82.93
2017-08-01T00:23:06.667Z,82.25
2017-08-01T00:23:47.557Z,83.45
2017-08-01T00:24:28.456Z,82.93
2017-08-01T00:25:09.363Z,82.06
2017-08-01T00:25:50.259Z,82.29
2017-08-01T00:26:31.161Z,82.15
2017-08-01T00:27:12.073Z,82.45
2017-08-01T00:27:52.963Z,82.2
2017-08-01T00:28:33.848Z,82.29
2017-08-01T00:29:14.742Z,82.39
2017-08-01T00:31:09.946Z,82.39
2017-08-01T00:31:50.844Z,83.45
2017-08-01T00:32:31.739Z,83.84
2017-08-01T00:33:12.635Z,83.06
2017-08-01T00:33:53.530Z,82.68
2017-08-01T00:34:34.436Z,82.39
2017-08-01T00:35:15.334Z,82.68
2017-08-01T00:35:56.224Z,81.9
2017-08-01T00:36:37.124Z,81.9
2017-08-01T00:37:18.011Z,82.39
2017-08-01T00:37:58.913Z,81.9
2017-08-01T00:38:39.811Z,82.1
2017-08-01T00:39:20.701Z,81.81
2017-08-01T00:40:01.595Z,83.64
2017-08-01T00:40:42.490Z,83.45
2017-08-01T00:41:23.384Z,84.32
2017-08-01T00:42:04.283Z,84.67
2017-08-01T00:42:45.190Z,84.57
2017-08-01T00:43:26.089Z,84.47
2017-08-01T00:44:06.984Z,84.28
2017-08-01T00:44:47.872Z,84.67
2017-08-01T00:45:28.767Z,84.67
2017-08-01T00:46:09.662Z,84.47
2017-08-01T00:46:50.560Z,84.47
2017-08-01T00:47:31.463Z,84.77
2017-08-01T00:48:12.357Z,84.77
2017-08-01T00:48:53.246Z,84.28
2017-08-01T00:49:34.138Z,83.7
2017-08-01T00:50:15.043Z,83.36
2017-08-01T00:50:55.933Z,83.16
2017-08-01T00:51:36.816Z,83.45
2017-08-01T00:52:17.714Z,83.45
2017-08-01T00:52:58.604Z,83.26
2017-08-01T00:53:39.508Z,83.16
2017-08-01T00:54:20.428Z,83.16
2017-08-01T00:55:01.326Z,83.64
2017-08-01T00:55:42.208Z,85
2017-08-01T00:56:23.099Z,84.52
2017-08-01T00:57:03.982Z,83.84
2017-08-01T00:57:44.869Z,84.03
2017-08-01T00:58:25.775Z,83.64
2017-08-01T00:59:06.658Z,84.22
2017-08-01T00:59:47.542Z,84.03
2017-08-01T01:00:28.438Z,84.13
2017-08-01T01:01:09.347Z,83.84
2017-08-01T01:01:50.255Z,83.36
2017-08-01T01:02:31.128Z,83.06
2017-08-01T01:03:12.025Z,83.26
2017-08-01T01:03:52.907Z,83.16
2017-08-01T01:04:33.798Z,83.45
2017-08-01T01:05:14.680Z,83.36
2017-08-01T01:05:55.571Z,83.26
2017-08-01T01:06:36.464Z,84.03
2017-08-01T01:07:17.361Z,83.84
2017-08-01T01:07:58.260Z,83.94
2017-08-01T01:08:39.157Z,84.03
2017-08-01T01:09:20.053Z,85
2017-08-01T01:10:00.959Z,84.71
2017-08-01T01:10:41.842Z,84.52
2017-08-01T01:11:22.736Z,84.42
2017-08-01T01:12:03.668Z,84.61
2017-08-01T01:12:44.533Z,84.86
2017-08-01T01:13:25.427Z,85.19
2017-08-01T01:14:06.319Z,85.44
2017-08-01T01:14:47.207Z,85.73
2017-08-01T01:15:28.103Z,85.63
2017-08-01T01:16:09.012Z,85.53
2017-08-01T01:16:49.909Z,85.15
2017-08-01T01:17:30.800Z,85.53
2017-08-01T01:18:11.691Z,85.25
2017-08-01T01:18:52.593Z,85.35
2017-08-01T01:19:33.484Z,85.53
2017-08-01T01:20:14.385Z,85.39
2017-08-01T01:20:55.280Z,85.48
2017-08-01T01:21:36.168Z,85.68
2017-08-01T01:22:17.068Z,84.9
2017-08-01T01:22:57.958Z,85
2017-08-01T01:23:38.879Z,85.25
2017-08-01T01:24:19.767Z,86.11
2017-08-01T01:25:00.666Z,85.15
2017-08-01T01:25:41.562Z,85.53
2017-08-01T01:26:22.452Z,85.77
2017-08-01T01:27:03.341Z,85.68
2017-08-01T01:27:44.221Z,85.29
2017-08-01T01:28:25.121Z,85.39
2017-08-01T01:29:06.020Z,85.39
2017-08-01T01:29:46.910Z,85.1
2017-08-01T01:30:27.800Z,84.32
2017-08-01T01:31:08.696Z,84.32
2017-08-01T01:31:49.591Z,83.74
2017-08-01T01:32:30.478Z,84.32
2017-08-01T01:33:11.388Z,84.13
2017-08-01T01:33:52.282Z,84.13
2017-08-01T01:34:33.173Z,84.22
2017-08-01T01:35:14.075Z,84.32
2017-08-01T01:35:54.969Z,84.42
2017-08-01T01:36:35.880Z,84.52
2017-08-01T01:37:16.753Z,84.32
2017-08-01T01:37:57.643Z,84.52
2017-08-01T01:38:38.545Z,84.42
2017-08-01T01:39:19.435Z,84.9
2017-08-01T01:40:00.314Z,84.9
2017-08-01T01:40:41.214Z,84.42
2017-08-01T01:41:22.198Z,84.32
2017-08-01T01:42:02.995Z,84.52
2017-08-01T01:42:43.900Z,84.13
2017-08-01T01:43:24.793Z,84.13
2017-08-01T01:44:05.676Z,84.75
2017-08-01T01:44:46.570Z,84.52
2017-08-01T01:45:27.463Z,84.13
2017-08-01T01:46:08.367Z,84.71
2017-08-01T01:46:49.269Z,84.22
2017-08-01T01:47:30.157Z,84.52
2017-08-01T01:48:11.052Z,84.61
2017-08-01T01:48:51.945Z,84.8
2017-08-01T01:49:32.839Z,85.97
2017-08-01T01:50:13.739Z,86.06
2017-08-01T01:50:54.640Z,86.65
2017-08-01T01:51:35.543Z,87.13
2017-08-01T01:52:16.442Z,87.23
2017-08-01T01:52:57.324Z,87.61
2017-08-01T01:53:38.220Z,87.71
2017-08-01T01:54:19.118Z,87.66
2017-08-01T01:55:00.015Z,87.66
2017-08-01T01:55:40.909Z,87.27
2017-08-01T01:56:21.807Z,87.27
2017-08-01T01:57:02.706Z,87.27
2017-08-01T01:57:43.599Z,86.99
2017-08-01T01:58:24.492Z,87.47
2017-08-01T01:59:05.387Z,86.79
2017-08-01T01:59:46.281Z,86.69
2017-08-01T02:00:27.180Z,86.41
2017-08-01T02:01:08.087Z,86.6
2017-08-01T02:01:48.977Z,86.79
2017-08-01T02:02:29.882Z,87.47
2017-08-01T02:03:10.788Z,87.47
2017-08-01T02:03:51.677Z,87.57
2017-08-01T02:04:32.575Z,87.08
2017-08-01T02:05:13.465Z,87.85
2017-08-01T02:05:54.363Z,87.37
2017-08-01T02:06:35.263Z,87.27
2017-08-01T02:07:16.162Z,87.66
2017-08-01T02:07:57.058Z,88.15
2017-08-01T02:08:37.959Z,88.24
2017-08-01T02:09:18.850Z,88.1
2017-08-01T02:09:59.759Z,88.1
2017-08-01T02:10:40.661Z,88.29
2017-08-01T02:11:21.554Z,88.29
2017-08-01T02:12:02.466Z,88.49
2017-08-01T02:12:43.358Z,88.39
2017-08-01T02:13:24.255Z,88.29
2017-08-01T02:14:05.157Z,88.39
2017-08-01T02:14:46.052Z,88.1
2017-08-01T02:15:26.950Z,88.29
2017-08-01T02:16:07.849Z,88.01
2017-08-01T02:16:48.739Z,88.29
2017-08-01T02:17:29.629Z,88.2
2017-08-01T02:18:10.530Z,88.39
2017-08-01T02:18:51.445Z,88.68
2017-08-01T02:19:32.324Z,88.68
2017-08-01T02:20:13.225Z,88.68
2017-08-01T02:20:54.121Z,88.29
2017-08-01T02:21:35.011Z,88.29
2017-08-01T02:22:15.931Z,88.01
2017-08-01T02:22:56.837Z,88.39
2017-08-01T02:23:37.733Z,88.59
2017-08-01T02:24:18.622Z,88.78
2017-08-01T02:24:59.521Z,88.34
2017-08-01T02:25:40.416Z,88.34
2017-08-01T02:26:21.305Z,88.49
2017-08-01T02:27:02.204Z,88.68
2017-08-01T02:27:43.097Z,88.59
2017-08-01T02:28:23.984Z,88.68
2017-08-01T02:29:04.878Z,88.78
2017-08-01T02:29:45.770Z,88.68
2017-08-01T02:30:26.665Z,88.49
2017-08-01T02:31:07.555Z,88.29
2017-08-01T02:31:48.459Z,88.1
2017-08-01T02:32:29.351Z,88.29
2017-08-01T02:33:10.272Z,88.29
2017-08-01T02:33:51.175Z,88.43
2017-08-01T02:34:32.067Z,88.63
2017-08-01T02:35:12.941Z,88.34
2017-08-01T02:35:53.834Z,87.95
2017-08-01T02:36:34.730Z,87.95
2017-08-01T02:37:15.615Z,87.37
2017-08-01T02:37:56.511Z,87.27
2017-08-01T02:38:37.416Z,87.27
2017-08-01T02:39:18.310Z,87.85
2017-08-01T02:39:59.205Z,88.53
2017-08-01T02:40:40.124Z,88.34
2017-08-01T02:41:21.023Z,88.43
2017-08-01T02:42:01.927Z,88.34
2017-08-01T02:42:42.810Z,88.34
2017-08-01T02:43:23.713Z,88.82
2017-08-01T02:44:04.616Z,88.53
2017-08-01T02:44:45.518Z,89.01
2017-08-01T02:45:26.419Z,88.82
2017-08-01T02:46:07.307Z,88.68
2017-08-01T02:46:48.206Z,88.63
2017-08-01T02:47:29.095Z,88.34
2017-08-01T02:48:09.993Z,88.34
2017-08-01T02:48:50.892Z,88.43
2017-08-01T02:49:31.782Z,88.53
2017-08-01T02:50:12.675Z,88.53
2017-08-01T02:50:53.568Z,88.63
2017-08-01T02:51:34.460Z,87.85
2017-08-01T02:52:15.358Z,87.76
2017-08-01T02:52:56.253Z,87.71
2017-08-01T02:53:37.147Z,87.13
2017-08-01T02:54:18.040Z,87.27
2017-08-01T02:54:58.939Z,87.13
2017-08-01T02:55:39.829Z,87.23
2017-08-01T02:56:20.714Z,87.13
2017-08-01T02:57:01.607Z,87.18
2017-08-01T02:57:42.504Z,87.03
2017-08-01T02:58:23.400Z,87.08
2017-08-01T02:59:04.288Z,87.27
2017-08-01T02:59:45.176Z,87.47
2017-08-01T03:00:26.072Z,87.85
2017-08-01T03:01:06.968Z,88.34
2017-08-01T03:01:47.857Z,88.73
2017-08-01T03:02:28.757Z,88.82
2017-08-01T03:03:09.649Z,89.01
2017-08-01T03:03:50.546Z,89.21
2017-08-01T03:04:31.464Z,89.5
2017-08-01T03:05:12.350Z,89.59
2017-08-01T03:05:53.253Z,89.59
2017-08-01T03:06:34.142Z,89.5
2017-08-01T03:07:15.042Z,89.69
2017-08-01T03:07:55.953Z,89.5
2017-08-01T03:08:36.849Z,89.79
2017-08-01T03:09:17.752Z,90.08
2017-08-01T03:09:58.637Z,89.69
2017-08-01T03:10:39.538Z,89.59
2017-08-01T03:11:20.435Z,90.47
2017-08-01T03:12:01.328Z,90.27
2017-08-01T03:12:42.229Z,90.17
2017-08-01T03:13:23.113Z,90.37
2017-08-01T03:14:04.010Z,90.47
2017-08-01T03:14:44.898Z,90.17
2017-08-01T03:15:25.804Z,90.13
2017-08-01T03:16:06.697Z,89.89
2017-08-01T03:16:47.592Z,90.37
2017-08-01T03:17:28.484Z,90.42
2017-08-01T03:18:09.386Z,90.42
2017-08-01T03:18:50.278Z,89.94
2017-08-01T03:19:31.172Z,90.33
2017-08-01T03:20:12.070Z,90.42
2017-08-01T03:20:52.975Z,90.52
2017-08-01T03:21:33.883Z,90.77
2017-08-01T03:22:14.787Z,90.95
2017-08-01T03:22:55.678Z,90.86
2017-08-01T03:23:36.583Z,90.77
2017-08-01T03:24:17.500Z,91.05
2017-08-01T03:24:58.402Z,91.25
2017-08-01T03:25:39.294Z,90.19
2017-08-01T03:26:20.191Z,91.25
2017-08-01T03:27:01.085Z,90.95
2017-08-01T03:27:41.987Z,90.86
2017-08-01T03:28:22.881Z,91.05
2017-08-01T03:29:03.790Z,90.86
2017-08-01T03:29:44.675Z,90.86
2017-08-01T03:30:25.610Z,90.47
2017-08-01T03:31:06.510Z,91.15
2017-08-01T03:31:47.414Z,91.15
2017-08-01T03:32:28.295Z,90.71
2017-08-01T03:33:09.184Z,90.52
2017-08-01T03:33:50.085Z,91.19
2017-08-01T03:34:30.962Z,91.09
2017-08-01T03:35:11.859Z,91.29
2017-08-01T03:35:52.749Z,90.33
2017-08-01T03:36:33.634Z,91.29
2017-08-01T03:37:14.534Z,91.19
2017-08-01T03:37:55.426Z,91.09
2017-08-01T03:38:36.319Z,90.61
2017-08-01T03:39:17.215Z,91.05
2017-08-01T03:39:58.123Z,91.15
2017-08-01T03:40:39.015Z,91.44
2017-08-01T03:41:19.938Z,90.95
2017-08-01T03:42:00.833Z,90.86
2017-08-01T03:42:41.722Z,90.86
2017-08-01T03:43:22.634Z,92.02
2017-08-01T03:44:03.528Z,90.57
2017-08-01T03:44:44.423Z,90.77
2017-08-01T03:45:25.308Z,90.57
2017-08-01T03:46:06.226Z,90.57
2017-08-01T03:46:47.109Z,90.86
2017-08-01T03:47:28.021Z,90.95
2017-08-01T03:48:08.928Z,90.86
2017-08-01T03:48:49.835Z,91.25
2017-08-01T03:49:30.734Z,90.95
2017-08-01T03:50:11.626Z,91.44
2017-08-01T03:50:52.528Z,91.05
2017-08-01T03:51:33.418Z,91.25
2017-08-01T03:52:14.315Z,90.67
2017-08-01T03:52:55.214Z,91.05
2017-08-01T03:53:36.107Z,90.86
2017-08-01T03:54:17.007Z,90.86
2017-08-01T03:54:57.906Z,91
2017-08-01T03:55:38.787Z,91.19
2017-08-01T03:56:19.684Z,91.09
2017-08-01T03:57:00.587Z,90.67
2017-08-01T03:57:41.483Z,90.86
2017-08-01T03:58:22.385Z,90.67
2017-08-01T03:59:03.304Z,91.73
2017-08-01T03:59:44.208Z,91.63
2017-08-01T04:00:25.110Z,91.19
2017-08-01T04:01:06.037Z,90.91
2017-08-01T04:01:46.934Z,92.25
2017-08-01T04:02:27.843Z,91.39
2017-08-01T04:03:08.734Z,91.19
2017-08-01T04:03:49.631Z,91.63
2017-08-01T04:04:30.530Z,92.21
2017-08-01T04:05:11.422Z,90.09
2017-08-01T04:05:52.326Z,91.15
2017-08-01T04:06:33.217Z,91.01
2017-08-01T04:07:14.119Z,91.39
2017-08-01T04:07:55.018Z,90.81
2017-08-01T04:08:35.920Z,90.62
2017-08-01T04:09:16.804Z,90.91
2017-08-01T04:09:57.702Z,90.91
2017-08-01T04:10:38.597Z,90.72
2017-08-01T04:11:19.500Z,91.59
2017-08-01T04:12:00.391Z,90.81
2017-08-01T04:12:41.296Z,90.91
2017-08-01T04:13:22.224Z,91.59
2017-08-01T04:14:03.076Z,91.11
2017-08-01T04:14:43.973Z,91.05
2017-08-01T04:15:24.872Z,91.35
2017-08-01T04:16:05.764Z,91.15
2017-08-01T04:16:46.672Z,91.15
2017-08-01T04:17:27.575Z,90.86
2017-08-01T04:18:08.477Z,91.15
2017-08-01T04:18:49.371Z,91.09
2017-08-01T04:19:30.261Z,90.67
2017-08-01T04:20:11.159Z,91.05
2017-08-01T04:20:52.060Z,90.28
2017-08-01T04:21:32.958Z,91.25
2017-08-01T04:22:13.882Z,91.25
2017-08-01T04:22:54.778Z,90.95
2017-08-01T04:23:35.704Z,91.05
2017-08-01T04:24:16.616Z,91.09
2017-08-01T04:24:57.512Z,90.57
2017-08-01T04:25:38.414Z,91.15
2017-08-01T04:26:19.316Z,91.15
2017-08-01T04:27:00.212Z,91.25
2017-08-01T04:27:41.114Z,91.15
2017-08-01T04:28:22.036Z,90.57
2017-08-01T04:29:02.941Z,91.44
2017-08-01T04:29:43.820Z,90.95
2017-08-01T04:30:24.718Z,91.15
2017-08-01T04:31:05.618Z,90.95
2017-08-01T04:31:46.518Z,91.05
2017-08-01T04:32:27.424Z,90.86
2017-08-01T04:33:08.313Z,91.53
2017-08-01T04:33:49.204Z,91.09
2017-08-01T04:34:30.099Z,91.87
2017-08-01T04:35:10.997Z,92.07
2017-08-01T04:35:51.895Z,91.29
2017-08-01T04:36:32.790Z,91.29
2017-08-01T04:37:13.679Z,90.81
2017-08-01T04:37:54.581Z,90.71
2017-08-01T04:38:35.463Z,91.14
2017-08-01T04:39:16.360Z,91.29
2017-08-01T04:39:57.263Z,90.91
2017-08-01T04:40:38.157Z,90.37
2017-08-01T04:41:19.044Z,91.53
2017-08-01T04:41:59.954Z,91.83
2017-08-01T04:42:40.845Z,91
2017-08-01T04:43:21.743Z,91.97
2017-08-01T04:44:02.639Z,91.09
2017-08-01T04:44:43.528Z,90.81
2017-08-01T04:45:24.434Z,92.16
2017-08-01T04:46:05.318Z,90.77
2017-08-01T04:46:46.214Z,92.07
2017-08-01T04:47:27.127Z,90.81
2017-08-01T04:48:08.018Z,91.77
2017-08-01T04:48:48.919Z,92.16
2017-08-01T04:49:29.813Z,90.61
2017-08-01T04:50:10.697Z,91
2017-08-01T04:50:51.590Z,91.92
2017-08-01T04:51:32.490Z,91.87
2017-08-01T04:52:13.376Z,91.97
2017-08-01T04:52:54.278Z,91.58
2017-08-01T04:53:35.172Z,91.39
2017-08-01T04:54:16.067Z,91.09
2017-08-01T04:54:56.972Z,92.55
2017-08-01T04:55:37.862Z,91
2017-08-01T04:56:18.753Z,91.39
2017-08-01T04:56:59.662Z,91.29
2017-08-01T04:57:40.551Z,91.19
2017-08-01T04:58:21.462Z,91.49
2017-08-01T04:59:02.348Z,91.09
2017-08-01T04:59:43.242Z,91.58
2017-08-01T05:00:24.138Z,91
2017-08-01T05:01:05.029Z,91
2017-08-01T05:01:45.930Z,90.81
2017-08-01T05:02:26.820Z,91.05
2017-08-01T05:03:07.711Z,91
2017-08-01T05:03:48.618Z,90.52
2017-08-01T05:04:29.507Z,90.91
2017-08-01T05:05:10.401Z,91.49
2017-08-01T05:05:51.297Z,90.81
2017-08-01T05:06:32.225Z,91.09
2017-08-01T05:07:13.117Z,90.95
2017-08-01T05:07:54.016Z,90.67
2017-08-01T05:08:34.919Z,91.25
2017-08-01T05:09:15.806Z,91.39
2017-08-01T05:09:56.710Z,91.68
2017-08-01T05:10:37.605Z,91.88
2017-08-01T05:11:18.508Z,92.26
2017-08-01T05:11:59.396Z,91.74
2017-08-01T05:12:40.293Z,91.97
2017-08-01T05:13:21.187Z,91.68
2017-08-01T05:14:02.082Z,91.83
2017-08-01T05:14:42.985Z,92.22
2017-08-01T05:15:23.878Z,90.96
2017-08-01T05:16:04.768Z,92.02
2017-08-01T05:16:45.656Z,92.32
2017-08-01T05:17:26.545Z,91.74
2017-08-01T05:18:07.453Z,91.74
2017-08-01T05:18:48.347Z,92.22
2017-08-01T05:19:29.242Z,92.12
2017-08-01T05:20:10.131Z,91.83
2017-08-01T05:20:51.030Z,93.18
2017-08-01T05:21:31.935Z,91.44
2017-08-01T05:22:12.820Z,93.13
2017-08-01T05:22:53.710Z,91.78
2017-08-01T05:23:34.601Z,92.99
2017-08-01T05:24:15.503Z,91.35
2017-08-01T05:24:56.397Z,91.78
2017-08-01T05:25:37.293Z,91.39
2017-08-01T05:26:18.188Z,93.13
2017-08-01T05:26:59.105Z,92.07
2017-08-01T05:27:39.996Z,91.49
2017-08-01T05:28:20.880Z,91.49
2017-08-01T05:29:01.773Z,91.59
2017-08-01T05:29:42.694Z,91.88
2017-08-01T05:30:23.565Z,91.68
2017-08-01T05:31:04.471Z,91.35
2017-08-01T05:31:45.361Z,92.07
2017-08-01T05:32:26.257Z,91.78
2017-08-01T05:33:07.150Z,90.91
2017-08-01T05:33:48.048Z,91.68
2017-08-01T05:34:28.944Z,91.88
2017-08-01T05:35:09.841Z,91.39
2017-08-01T05:35:50.750Z,91.78
2017-08-01T05:36:31.660Z,92.07
2017-08-01T05:37:12.549Z,91.88
2017-08-01T05:37:53.452Z,91.68
2017-08-01T05:38:34.344Z,92.16
2017-08-01T05:39:15.240Z,92.46
2017-08-01T05:39:56.140Z,91.68
2017-08-01T05:40:37.028Z,91.78
2017-08-01T05:41:17.915Z,91.88
2017-08-01T05:41:58.802Z,92.16
2017-08-01T05:42:39.687Z,92.07
2017-08-01T05:43:20.592Z,92.11
2017-08-01T05:44:01.483Z,91.88
2017-08-01T05:44:42.381Z,91.68
2017-08-01T05:45:23.252Z,91.59
2017-08-01T05:46:04.151Z,91.54
2017-08-01T05:46:45.038Z,91.64
2017-08-01T05:47:25.920Z,92.32
2017-08-01T05:48:06.810Z,92.32
2017-08-01T05:48:47.715Z,92.12
2017-08-01T05:49:28.621Z,91.35
2017-08-01T05:50:09.536Z,92.6
2017-08-01T05:50:50.409Z,91.3
2017-08-01T05:51:31.296Z,92.12
2017-08-01T05:52:12.186Z,92.56
2017-08-01T05:52:53.118Z,92.8
2017-08-01T05:53:34.025Z,93.08
2017-08-01T05:54:14.906Z,92.41
2017-08-01T05:54:55.796Z,92.22
2017-08-01T05:55:36.698Z,91.39
2017-08-01T05:56:17.581Z,93.23
2017-08-01T05:56:58.468Z,92.74
2017-08-01T05:57:39.366Z,92.46
2017-08-01T05:58:20.257Z,91.97
2017-08-01T05:59:01.175Z,92.16
2017-08-01T06:00:34.520Z,92.32
2017-08-01T06:01:15.417Z,92.41
2017-08-01T06:01:56.307Z,92.41
2017-08-01T06:02:37.204Z,92.6
2017-08-01T06:03:18.091Z,92.5
2017-08-01T06:03:58.982Z,92.6
2017-08-01T06:04:39.880Z,92.12
2017-08-01T06:05:20.785Z,92.5
2017-08-01T06:06:01.670Z,92.6
2017-08-01T06:06:42.563Z,92.12
2017-08-01T06:07:23.460Z,92.7
2017-08-01T06:08:04.356Z,92.65
2017-08-01T06:08:45.272Z,92.46
2017-08-01T06:09:26.169Z,92.85
2017-08-01T06:10:07.057Z,92.36
2017-08-01T06:10:47.985Z,92.22
2017-08-01T06:11:28.873Z,93.09
2017-08-01T06:12:09.778Z,91.83
2017-08-01T06:12:50.681Z,92.22
2017-08-01T06:13:31.584Z,92.56
2017-08-01T06:14:12.470Z,91.69
2017-08-01T06:14:53.396Z,91.21
2017-08-01T06:16:21.578Z,90.97
2017-08-01T06:17:49.731Z,91.94
2017-08-01T06:18:30.581Z,90.59
2017-08-01T06:19:11.500Z,90.3
2017-08-01T06:19:52.372Z,90.4
2017-08-01T06:20:33.236Z,90.2
2017-08-01T06:21:14.126Z,89.53
2017-08-01T06:21:55.010Z,89.92
2017-08-01T06:22:35.905Z,90.78
2017-08-01T06:23:16.777Z,90.01
2017-08-01T06:23:57.676Z,90.3
2017-08-01T06:24:38.563Z,90.5
2017-08-01T06:25:19.435Z,90.35
2017-08-01T06:26:00.315Z,89.1
2017-08-01T06:26:41.187Z,89.1
2017-08-01T06:27:22.061Z,89.01
2017-08-01T06:28:02.920Z,89.97
2017-08-01T06:28:43.790Z,89.2
2017-08-01T06:29:24.656Z,89.58
2017-08-01T06:30:05.521Z,89.29
2017-08-01T06:30:46.406Z,89.01
2017-08-01T06:31:27.286Z,90.26
2017-08-01T06:32:08.159Z,89.29
2017-08-01T06:32:49.031Z,89.29
2017-08-01T06:33:29.906Z,89.01
2017-08-01T06:34:10.764Z,88.71
2017-08-01T06:34:51.655Z,88.81
2017-08-01T06:35:32.545Z,88.71
2017-08-01T06:36:13.433Z,89.01
2017-08-01T06:36:54.300Z,88.91
2017-08-01T06:37:35.166Z,88.19
2017-08-01T06:38:16.048Z,88.43
2017-08-01T06:38:56.922Z,88.33
2017-08-01T06:39:37.804Z,88.04
2017-08-01T06:40:18.664Z,88.29
2017-08-01T06:40:59.534Z,88.14
2017-08-01T06:41:40.406Z,88.04
2017-08-01T06:42:21.299Z,88.33
2017-08-01T06:43:02.190Z,88.24
2017-08-01T06:43:43.060Z,87.76
2017-08-01T06:44:23.922Z,87.95
2017-08-01T06:45:04.795Z,87.76
2017-08-01T06:45:45.672Z,87.66
2017-08-01T06:46:26.552Z,88.43
2017-08-01T06:47:07.440Z,88.62
2017-08-01T06:47:48.301Z,88.04
2017-08-01T06:48:29.164Z,88.04
2017-08-01T06:49:10.033Z,88.24
2017-08-01T06:49:50.902Z,88.04
2017-08-01T06:50:31.795Z,88.33
2017-08-01T06:51:12.690Z,88.14
2017-08-01T06:51:53.554Z,87.9
2017-08-01T06:52:34.467Z,88.38
2017-08-01T06:53:15.359Z,89.15
2017-08-01T06:53:56.227Z,89.15
2017-08-01T06:54:37.102Z,89.24
2017-08-01T06:55:17.997Z,89.43
2017-08-01T06:55:58.886Z,88.95
2017-08-01T06:56:39.753Z,90.16
2017-08-01T06:57:20.616Z,90.16
2017-08-01T06:58:01.501Z,90.16
2017-08-01T06:59:39.945Z,89.58
2017-08-01T07:00:20.823Z,90.34
2017-08-01T07:01:01.704Z,90.16
2017-08-01T07:01:42.581Z,91.02
2017-08-01T07:02:23.447Z,90.68
2017-08-01T07:03:04.333Z,90.68
2017-08-01T07:03:45.215Z,91.4
2017-08-01T07:04:26.110Z,91.2
2017-08-01T07:05:07.003Z,91.83
2017-08-01T07:05:47.905Z,92.12
2017-08-01T07:06:28.781Z,91.78
2017-08-01T07:07:09.668Z,93.04
2017-08-01T07:07:50.604Z,92.46
2017-08-01T07:08:31.478Z,92.07
2017-08-01T07:09:12.359Z,92.26
2017-08-01T07:09:53.278Z,92.79
2017-08-01T07:10:34.122Z,91.63
2017-08-01T07:11:14.995Z,92.07
2017-08-01T07:11:55.882Z,91.87
2017-08-01T07:12:36.786Z,91.63
2017-08-01T07:13:17.658Z,91.82
2017-08-01T07:13:58.526Z,91.05
2017-08-01T07:14:39.404Z,91.38
2017-08-01T07:15:20.287Z,91.48
2017-08-01T07:16:01.166Z,91.24
2017-08-01T07:16:42.037Z,90.46
2017-08-01T07:17:22.902Z,90.75
2017-08-01T07:18:03.769Z,90.26
2017-08-01T07:18:44.675Z,90.31
2017-08-01T07:19:25.571Z,89.48
2017-08-01T07:20:06.449Z,88.42
2017-08-01T07:20:47.358Z,89.19
2017-08-01T07:21:28.257Z,88.9
2017-08-01T07:22:09.161Z,88.37
2017-08-01T07:22:50.056Z,87.78
2017-08-01T07:23:30.936Z,87.73
2017-08-01T07:25:04.233Z,87.44
2017-08-01T07:25:45.094Z,87.3
2017-08-01T07:26:25.984Z,87.59
2017-08-01T07:27:06.878Z,87.15
2017-08-01T07:27:47.740Z,87.34
2017-08-01T07:28:28.608Z,87.01
2017-08-01T07:29:09.497Z,87.54
2017-08-01T07:29:50.381Z,87.15
2017-08-01T07:30:31.270Z,87.63
2017-08-01T07:31:12.141Z,87.05
2017-08-01T07:31:53.033Z,86.62
2017-08-01T07:32:33.926Z,86.86
2017-08-01T07:33:14.808Z,86.27
2017-08-01T07:33:55.676Z,85.44
2017-08-01T07:34:36.543Z,83.89
2017-08-01T07:35:17.420Z,83.94
2017-08-01T07:35:58.298Z,83.78
2017-08-01T07:36:39.190Z,84.01
2017-08-01T07:37:20.058Z,82.6
2017-08-01T07:38:58.533Z,80.05
2017-08-01T07:39:39.433Z,79.38
2017-08-01T07:40:20.321Z,77.56
2017-08-01T07:41:01.217Z,77.5
2017-08-01T07:41:42.128Z,75.95
2017-08-01T07:42:23.009Z,75.65
2017-08-01T07:43:03.904Z,74.97
2017-08-01T07:43:44.787Z,74.39
2017-08-01T07:44:25.698Z,75.85
2017-08-01T07:45:06.580Z,76.53
2017-08-01T07:45:47.453Z,75.85
2017-08-01T07:46:28.327Z,76.14
2017-08-01T07:47:09.234Z,75.16
2017-08-01T07:47:50.129Z,75.65
2017-08-01T07:48:31.015Z,74
2017-08-01T07:49:11.907Z,73.16
2017-08-01T07:49:52.794Z,71.6
2017-08-01T07:50:33.677Z,71.6
2017-08-01T07:51:14.560Z,72.25
2017-08-01T07:51:55.442Z,72.5
2017-08-01T07:52:36.326Z,73.05
2017-08-01T07:53:17.214Z,75.38
2017-08-01T07:53:58.109Z,75.09
2017-08-01T07:54:39.001Z,75.38
2017-08-01T07:55:19.893Z,75.91
2017-08-01T07:56:00.792Z,75.52
2017-08-01T07:56:41.690Z,75.16
2017-08-01T07:57:22.634Z,75.42
2017-08-01T07:58:03.536Z,74.41
2017-08-01T07:58:44.426Z,76.51
2017-08-01T07:59:25.325Z,77.45
2017-08-01T08:00:06.216Z,78.52
2017-08-01T08:00:47.108Z,78.52
2017-08-01T08:01:28.004Z,79.3
2017-08-01T08:02:08.876Z,79.55
2017-08-01T08:02:49.788Z,80.38
2017-08-01T08:03:30.689Z,81.16
2017-08-01T08:04:11.578Z,81.31
2017-08-01T08:04:52.473Z,83.02
2017-08-01T08:05:33.351Z,83.65
2017-08-01T08:06:14.218Z,84.43
2017-08-01T08:06:55.098Z,84.39
2017-08-01T08:07:35.988Z,84.83
2017-08-01T08:08:16.887Z,85.8
2017-08-01T08:08:57.765Z,85.71
2017-08-01T08:09:38.636Z,86.77
2017-08-01T08:10:19.538Z,86.68
2017-08-01T08:11:52.832Z,87.89
2017-08-01T08:12:33.707Z,87.99
2017-08-01T08:13:14.594Z,87.21
2017-08-01T08:13:55.490Z,87.41
2017-08-01T08:14:36.382Z,87.5
2017-08-01T08:15:17.251Z,87.06
2017-08-01T08:15:58.138Z,86.96
2017-08-01T08:16:39.033Z,86.96
2017-08-01T08:17:19.924Z,86.96
2017-08-01T08:18:00.814Z,86.13
2017-08-01T08:18:41.697Z,85.75
2017-08-01T08:19:22.586Z,85.11
2017-08-01T08:20:03.470Z,85.02
2017-08-01T08:20:44.343Z,85.02
2017-08-01T08:21:25.226Z,84.53
2017-08-01T08:22:06.114Z,84.05
2017-08-01T08:22:46.986Z,83.7
2017-08-01T08:23:27.877Z,83.25
2017-08-01T08:24:08.756Z,83.39
2017-08-01T08:24:49.636Z,82.27
2017-08-01T08:25:30.518Z,81.98
2017-08-01T08:26:11.394Z,81.04
2017-08-01T08:26:52.295Z,80.27
2017-08-01T08:27:33.189Z,78.79
2017-08-01T08:28:14.064Z,77.23
2017-08-01T08:28:54.943Z,76.35
2017-08-01T08:29:35.819Z,75.23
2017-08-01T08:30:16.720Z,74.93
2017-08-01T08:30:57.614Z,74
2017-08-01T08:31:38.495Z,74
2017-08-01T08:32:19.394Z,73.51
2017-08-01T08:33:00.287Z,72.05
2017-08-01T08:33:41.176Z,72.38
2017-08-01T08:34:22.058Z,71.6
2017-08-01T08:35:02.962Z,71.56
2017-08-01T08:35:43.863Z,70.88
2017-08-01T08:36:24.757Z,70.4
2017-08-01T08:37:05.684Z,70.98
2017-08-01T08:37:46.570Z,71.76
2017-08-01T08:38:27.450Z,71.6
2017-08-01T08:39:08.340Z,70.62
2017-08-01T08:39:49.221Z,69.94
2017-08-01T08:40:30.108Z,71.5
2017-08-01T08:41:11.033Z,70.23
2017-08-01T08:41:51.944Z,70.17
2017-08-01T08:42:32.886Z,69.1
2017-08-01T08:43:13.813Z,69.2
2017-08-01T08:43:54.705Z,69
2017-08-01T08:44:35.595Z,67.57
2017-08-01T08:45:16.507Z,67.41
2017-08-01T08:45:57.398Z,66.47
2017-08-01T08:46:38.294Z,65.39
2017-08-01T08:47:19.199Z,65.69
2017-08-01T08:48:00.083Z,64.75
2017-08-01T08:48:40.992Z,63.57
2017-08-01T08:49:21.876Z,63.87
2017-08-01T08:50:02.806Z,62.33
2017-08-01T08:50:43.688Z,60.18
2017-08-01T08:51:24.586Z,59.77
2017-08-01T08:52:05.482Z,60.25
2017-08-01T08:52:46.384Z,61.3
2017-08-01T08:53:27.284Z,59.64
2017-08-01T08:54:08.195Z,59.74
2017-08-01T08:54:49.097Z,60.68
2017-08-01T08:55:29.995Z,61.36
2017-08-01T08:56:10.940Z,60.78